Clinton Municipal Airport

About

Name: Clinton Municipal Airport
Identifier:  CWI/KCWI
Local Time:  26. Jan 07:59 CST

Location

Clinton Municipal Airport

Statistics

Flights Per Day:
0 Flights
Distance: 291km (180mi)
Flights Delayed:
0% (0 Flights/Day Delayed)
Average Delay: 34 minutes

Current Weather

 -3 C (Humidity: 92%)
  8kt (14km/h / 9mph) from 300°
  Overcast at 600 feet (182 meter)
  16km (10 mi.)
 METAR KCWI 261256Z AUTO 30008KT 10SM OVC006 M03/M04 A2996 RMK AO2 SLP159 T10281039 FZRANO

Claim Compensation

Claim compensation for your flight delay or cancellation
Flight delays happen, but that doesn’t mean you have to accept them. You may be entitled to as much as €600/$700 in compensation if your flight has been delayed, canceled or overbooked within the last three years.

Current Delays

Departures

N/A

Arrivals

N/A

Destinations

Map

Top Destinations

Airport Flights
per week
Seats
per week
  Cedar Rapids (CID) 0 - 0 0

Airlines & Planes

Top Airlines

Airline Flights
per day
Seats
per day
  National Airlines 0 -

Top Models

model Flights seats
Cirrus SR22 0.1/day - 0